Time;durP1;ratioP1;P1;durP2;ratioP2;P2;SDS_P1;SDS_P2;PMS_P1;PMS_P2;Temp;Humidity;BMP_temperature;BMP_pressure;BME280_temperature;BME280_humidity;BME280_pressure;Samples;Min_cycle;Max_cycle;Signal;HPM_P1;HPM_P2
2023/01/11 00:01:05;;;;;;;6.33;2.17;;;4.90;99.90;;;;;;5026055;28;20562;-76
2023/01/11 00:03:30;;;;;;;5.53;2.13;;;4.90;99.90;;;;;;5021564;28;20422;-77
2023/01/11 00:05:58;;;;;;;7.43;4.03;;;5.00;99.90;;;;;;5018786;28;20411;-77
2023/01/11 00:08:25;;;;;;;3.80;1.90;;;5.00;99.90;;;;;;5024588;28;20208;-77
2023/01/11 00:10:51;;;;;;;5.57;2.27;;;5.00;99.90;;;;;;5018438;28;20460;-77
2023/01/11 00:13:17;;;;;;;5.07;2.70;;;5.00;99.90;;;;;;5028558;28;20494;-77
2023/01/11 00:15:43;;;;;;;3.83;2.67;;;5.00;99.90;;;;;;5024417;28;20410;-76
2023/01/11 00:18:09;;;;;;;6.50;3.03;;;5.00;99.90;;;;;;5024681;28;20597;-75
2023/01/11 00:20:38;;;;;;;7.80;2.43;;;5.00;99.90;;;;;;5021358;28;20287;-76
2023/01/11 00:23:04;;;;;;;5.13;2.80;;;5.00;99.90;;;;;;5023875;28;20932;-76
2023/01/11 00:25:30;;;;;;;6.50;2.60;;;5.00;99.90;;;;;;5022660;28;20421;-76
2023/01/11 00:27:55;;;;;;;3.07;2.87;;;5.00;99.90;;;;;;5023772;28;20203;-76
2023/01/11 00:30:21;;;;;;;3.40;1.90;;;5.00;99.90;;;;;;5023426;28;20275;-76
2023/01/11 00:32:46;;;;;;;3.70;2.00;;;5.00;99.90;;;;;;5021603;28;20168;-76
2023/01/11 00:35:12;;;;;;;7.30;2.00;;;5.00;99.90;;;;;;5025074;28;20176;-76
2023/01/11 00:37:38;;;;;;;5.13;2.60;;;5.00;99.90;;;;;;5022396;28;20238;-76
2023/01/11 00:40:05;;;;;;;4.13;2.03;;;5.00;99.90;;;;;;5024037;28;20199;-76
2023/01/11 00:47:59;;;;;;;4.67;2.37;;;5.00;99.90;;;;;;5019853;28;20921;-76
2023/01/11 00:50:31;;;;;;;2.50;1.77;;;5.00;99.90;;;;;;5025349;28;20454;-76
2023/01/11 00:52:58;;;;;;;6.17;2.70;;;4.90;99.90;;;;;;5012285;28;20408;-75
2023/01/11 00:55:24;;;;;;;5.10;2.60;;;4.90;99.90;;;;;;5026277;28;20533;-75
2023/01/11 00:57:50;;;;;;;3.40;2.30;;;4.90;99.90;;;;;;5019679;28;20411;-76
2023/01/11 01:00:17;;;;;;;6.87;2.63;;;4.90;99.90;;;;;;5028977;28;20824;-75
2023/01/11 01:02:43;;;;;;;3.90;2.10;;;5.00;99.90;;;;;;5020491;28;20172;-76
2023/01/11 01:05:09;;;;;;;3.47;2.97;;;5.00;99.90;;;;;;5001724;28;20427;-75
2023/01/11 01:07:35;;;;;;;2.70;2.13;;;5.00;99.90;;;;;;5008095;28;20528;-76
2023/01/11 01:10:01;;;;;;;7.40;4.03;;;5.00;99.90;;;;;;5018722;28;20215;-76
2023/01/11 01:15:11;;;;;;;8.00;2.60;;;5.00;99.90;;;;;;5020823;28;20230;-76
2023/01/11 01:17:37;;;;;;;7.03;2.93;;;5.00;99.90;;;;;;5026750;28;20414;-76
2023/01/11 01:20:03;;;;;;;3.00;2.50;;;5.00;99.90;;;;;;5017686;28;20983;-76
2023/01/11 01:22:29;;;;;;;4.40;2.23;;;4.90;99.90;;;;;;5021147;28;20168;-77
2023/01/11 01:24:54;;;;;;;6.80;2.23;;;4.90;99.90;;;;;;5022429;28;20498;-77
2023/01/11 01:27:20;;;;;;;6.00;2.70;;;5.00;99.90;;;;;;5021797;28;20175;-76
2023/01/11 01:29:46;;;;;;;8.07;2.77;;;4.90;99.90;;;;;;5022605;28;20602;-76
2023/01/11 01:32:11;;;;;;;4.87;2.50;;;4.90;99.90;;;;;;5021107;28;20195;-75
2023/01/11 01:34:37;;;;;;;3.10;2.27;;;4.90;99.90;;;;;;5021549;28;20203;-76
2023/01/11 01:37:04;;;;;;;3.33;2.00;;;4.80;99.90;;;;;;5022529;28;20197;-76
2023/01/11 01:39:30;;;;;;;3.47;1.87;;;4.80;99.90;;;;;;5020559;28;20196;-76
2023/01/11 01:41:55;;;;;;;2.50;1.80;;;4.80;99.90;;;;;;5022561;28;20456;-76
2023/01/11 01:44:55;;;;;;;3.87;2.83;;;4.70;99.90;;;;;;5021399;28;20214;-76
2023/01/11 01:47:39;;;;;;;3.13;2.20;;;4.70;99.90;;;;;;5022274;28;20198;-76
2023/01/11 01:50:42;;;;;;;4.97;2.20;;;4.80;99.90;;;;;;5022568;28;20414;-76
2023/01/11 01:53:24;;;;;;;11.73;2.40;;;4.80;99.90;;;;;;5001099;28;20418;-76
2023/01/11 01:55:57;;;;;;;3.73;1.63;;;4.80;99.90;;;;;;5014117;28;20500;-76
2023/01/11 01:58:28;;;;;;;2.10;1.80;;;4.80;99.90;;;;;;5019902;28;20456;-76
2023/01/11 02:00:53;;;;;;;8.20;2.30;;;4.80;99.90;;;;;;5025736;28;20793;-76
2023/01/11 02:03:24;;;;;;;2.00;1.50;;;4.90;99.90;;;;;;5019545;28;20430;-77
2023/01/11 02:05:51;;;;;;;6.00;2.07;;;4.90;99.90;;;;;;5007048;28;20198;-76
2023/01/11 02:08:26;;;;;;;3.87;2.10;;;4.90;99.90;;;;;;5018909;28;20419;-77
2023/01/11 02:10:53;;;;;;;3.23;2.17;;;4.90;99.90;;;;;;5009142;28;20458;-76
2023/01/11 02:13:19;;;;;;;2.90;2.63;;;5.00;99.90;;;;;;5021403;28;20923;-77
2023/01/11 02:15:45;;;;;;;3.80;2.23;;;5.00;99.90;;;;;;5022724;28;20823;-76
2023/01/11 02:18:12;;;;;;;7.50;2.20;;;5.00;99.90;;;;;;5022679;28;20481;-76
2023/01/11 02:21:08;;;;;;;2.40;1.70;;;5.00;99.90;;;;;;5020861;28;20445;-77
2023/01/11 02:24:21;;;;;;;4.57;1.90;;;5.10;99.90;;;;;;5016619;28;20414;-76
2023/01/11 02:26:59;;;;;;;1.90;1.57;;;5.10;99.90;;;;;;4913107;29;20430;-75
2023/01/11 02:29:31;;;;;;;5.23;1.43;;;5.10;99.90;;;;;;5009605;28;20779;-76
2023/01/11 02:32:23;;;;;;;5.13;1.73;;;5.10;99.90;;;;;;5017192;28;20424;-77
2023/01/11 02:34:53;;;;;;;5.40;1.80;;;5.10;99.90;;;;;;5014379;28;20754;-76
2023/01/11 02:37:24;;;;;;;4.37;2.10;;;5.20;99.90;;;;;;5024394;28;20579;-76
2023/01/11 02:40:28;;;;;;;4.93;1.70;;;5.20;99.90;;;;;;5018276;28;20459;-76
2023/01/11 02:46:38;;;;;;;3.53;1.90;;;5.30;99.90;;;;;;5015456;28;20494;-76
2023/01/11 02:49:09;;;;;;;2.90;1.80;;;5.30;99.90;;;;;;4947441;29;20488;-76
2023/01/11 02:51:46;;;;;;;5.93;1.70;;;5.30;99.90;;;;;;4943771;29;20545;-77
2023/01/11 02:54:13;;;;;;;8.03;1.70;;;5.40;99.90;;;;;;4998913;28;20728;-76
2023/01/11 02:56:45;;;;;;;1.60;1.40;;;5.40;99.90;;;;;;5023397;28;20418;-76
2023/01/11 02:59:16;;;;;;;6.70;2.73;;;5.40;99.90;;;;;;5017315;28;20455;-76
2023/01/11 03:01:54;;;;;;;5.17;2.13;;;5.40;99.90;;;;;;5028538;28;20427;-76
2023/01/11 03:04:31;;;;;;;2.80;1.77;;;5.40;99.90;;;;;;5018552;28;20410;-76
2023/01/11 03:07:47;;;;;;;3.27;1.53;;;5.50;99.90;;;;;;5015999;28;20417;-76
2023/01/11 03:10:43;;;;;;;5.10;1.30;;;5.60;99.90;;;;;;5018909;28;20466;-76
2023/01/11 03:13:40;;;;;;;2.20;1.50;;;5.60;99.90;;;;;;5021964;28;20437;-76
2023/01/11 03:16:19;;;;;;;10.63;1.97;;;5.70;99.90;;;;;;5020715;28;20481;-75
2023/01/11 03:19:15;;;;;;;1.57;1.47;;;5.70;99.90;;;;;;5021689;28;20490;-75
2023/01/11 03:22:02;;;;;;;3.70;1.53;;;5.80;99.90;;;;;;4987323;28;20430;-76
2023/01/11 03:24:37;;;;;;;2.07;1.40;;;5.80;99.90;;;;;;5024379;28;20510;-75
2023/01/11 03:27:09;;;;;;;3.77;2.10;;;5.80;99.90;;;;;;5024787;28;20412;-75
2023/01/11 03:29:47;;;;;;;2.40;1.67;;;5.80;99.90;;;;;;5022483;28;20944;-75
2023/01/11 03:32:25;;;;;;;2.43;1.33;;;5.90;99.90;;;;;;5024270;28;20462;-75
2023/01/11 03:35:01;;;;;;;3.53;1.83;;;5.80;99.90;;;;;;5023406;28;20442;-76
2023/01/11 03:37:58;;;;;;;1.63;1.33;;;5.80;99.90;;;;;;5005710;28;20414;-75
2023/01/11 03:40:36;;;;;;;5.40;1.77;;;5.80;99.90;;;;;;4998182;28;20534;-76
2023/01/11 03:43:11;;;;;;;1.93;1.70;;;5.90;99.90;;;;;;5027820;28;20411;-76
2023/01/11 03:45:39;;;;;;;3.10;1.50;;;5.90;99.90;;;;;;5022801;28;20791;-76
2023/01/11 03:48:11;;;;;;;3.97;1.43;;;5.90;99.90;;;;;;5025140;28;20419;-75
2023/01/11 03:50:36;;;;;;;3.67;1.43;;;5.90;99.90;;;;;;5022690;28;20502;-74
2023/01/11 03:53:05;;;;;;;4.90;1.57;;;5.90;99.90;;;;;;5025905;28;20490;-75
2023/01/11 03:55:37;;;;;;;4.00;1.47;;;5.90;99.90;;;;;;5022064;28;20173;-75
2023/01/11 03:58:03;;;;;;;4.53;2.00;;;5.90;99.90;;;;;;5005911;28;20490;-75
2023/01/11 04:00:30;;;;;;;2.40;1.67;;;5.90;99.90;;;;;;5021586;28;20514;-75
2023/01/11 04:02:58;;;;;;;2.70;1.20;;;5.90;99.90;;;;;;5023779;28;20417;-75
2023/01/11 04:05:23;;;;;;;5.43;2.00;;;6.00;99.90;;;;;;5022504;28;20411;-75
2023/01/11 04:07:49;;;;;;;3.23;1.53;;;6.00;99.90;;;;;;5023659;28;20402;-75
2023/01/11 04:10:15;;;;;;;2.30;1.53;;;6.00;99.90;;;;;;5022322;28;20629;-75
2023/01/11 04:12:41;;;;;;;2.03;1.80;;;6.00;99.90;;;;;;5023444;28;20175;-75
2023/01/11 04:15:08;;;;;;;1.90;1.30;;;6.00;99.90;;;;;;5023927;28;20181;-76
2023/01/11 04:17:33;;;;;;;6.03;1.33;;;6.00;99.90;;;;;;5021275;28;20227;-76
2023/01/11 04:19:59;;;;;;;3.80;1.00;;;6.00;99.90;;;;;;5005613;28;21034;-75
2023/01/11 04:22:24;;;;;;;3.37;2.47;;;6.00;99.90;;;;;;5022331;28;20191;-75
2023/01/11 04:24:50;;;;;;;1.20;1.10;;;6.00;99.90;;;;;;5023615;28;20188;-76
2023/01/11 04:27:16;;;;;;;6.57;1.47;;;6.00;99.90;;;;;;5023604;28;20176;-76
2023/01/11 04:29:41;;;;;;;2.50;1.23;;;6.00;99.90;;;;;;5022853;28;20176;-76
2023/01/11 04:32:07;;;;;;;3.20;1.40;;;6.00;99.90;;;;;;5023700;28;20308;-75
2023/01/11 04:34:32;;;;;;;5.77;1.63;;;6.00;99.90;;;;;;5020506;28;20183;-76
2023/01/11 04:36:58;;;;;;;1.53;1.30;;;6.00;99.90;;;;;;5023759;28;20210;-76
2023/01/11 04:39:23;;;;;;;6.50;2.30;;;6.00;99.90;;;;;;5024840;28;20206;-76
2023/01/11 04:44:33;;;;;;;4.40;1.50;;;6.10;99.90;;;;;;5021883;28;20542;-76
2023/01/11 04:46:58;;;;;;;2.80;1.60;;;6.10;99.90;;;;;;5024838;28;20411;-76
2023/01/11 04:49:24;;;;;;;5.40;1.90;;;6.10;99.90;;;;;;5022638;28;20195;-76
2023/01/11 04:51:49;;;;;;;1.43;1.33;;;6.10;99.90;;;;;;5023457;28;20205;-76
2023/01/11 04:54:15;;;;;;;2.20;1.83;;;6.10;99.90;;;;;;5022879;28;20242;-76
2023/01/11 04:56:41;;;;;;;1.40;1.30;;;6.10;99.90;;;;;;5019955;28;20226;-76
2023/01/11 04:59:06;;;;;;;2.63;1.10;;;6.10;99.90;;;;;;5024137;28;20561;-76
2023/01/11 05:01:32;;;;;;;1.77;1.50;;;6.20;99.90;;;;;;5021371;28;20202;-75
2023/01/11 05:03:58;;;;;;;4.03;2.40;;;6.10;99.90;;;;;;5024190;28;20168;-75
2023/01/11 05:06:24;;;;;;;1.60;1.50;;;6.10;99.90;;;;;;5022483;28;20507;-76
2023/01/11 05:08:50;;;;;;;2.80;1.13;;;6.10;99.90;;;;;;5023294;28;20541;-75
2023/01/11 05:11:16;;;;;;;2.20;1.33;;;6.10;99.90;;;;;;5023014;28;20468;-76
2023/01/11 05:13:42;;;;;;;3.20;1.43;;;6.10;99.90;;;;;;5001982;28;20278;-76
2023/01/11 05:16:16;;;;;;;2.43;1.20;;;6.10;99.90;;;;;;5024338;28;20424;-76
2023/01/11 05:18:56;;;;;;;1.80;1.10;;;6.20;99.90;;;;;;5019221;28;20505;-76
2023/01/11 05:21:24;;;;;;;1.40;1.27;;;6.10;99.90;;;;;;5026546;28;20430;-75
2023/01/11 05:23:51;;;;;;;1.57;1.27;;;6.10;99.90;;;;;;5018963;28;20502;-75
2023/01/11 05:26:21;;;;;;;2.93;1.17;;;6.10;99.90;;;;;;5026380;28;20422;-75
2023/01/11 05:28:47;;;;;;;4.03;2.03;;;6.20;99.90;;;;;;5013453;28;20508;-75
2023/01/11 05:31:14;;;;;;;5.47;1.27;;;6.20;99.90;;;;;;5018707;28;20443;-76
2023/01/11 05:33:40;;;;;;;4.03;1.50;;;6.10;99.90;;;;;;5025110;28;20423;-76
2023/01/11 05:36:11;;;;;;;3.27;1.60;;;6.20;99.90;;;;;;5018677;28;20422;-75
2023/01/11 05:38:36;;;;;;;3.07;1.43;;;6.20;99.90;;;;;;5022881;28;20528;-75
2023/01/11 05:41:05;;;;;;;2.17;1.37;;;6.10;99.90;;;;;;5022012;28;20434;-76
2023/01/11 05:43:32;;;;;;;2.60;1.40;;;6.10;99.90;;;;;;4998050;28;20266;-76
2023/01/11 05:45:58;;;;;;;5.30;1.87;;;6.10;99.90;;;;;;5022678;28;20418;-75
2023/01/11 05:48:24;;;;;;;4.60;1.47;;;6.10;99.90;;;;;;5020788;28;20878;-76
2023/01/11 05:50:54;;;;;;;4.20;1.83;;;6.10;99.90;;;;;;5021875;28;20472;-76
2023/01/11 05:53:22;;;;;;;3.77;2.03;;;6.20;99.90;;;;;;5022025;28;20434;-76
2023/01/11 05:55:56;;;;;;;2.90;1.43;;;6.20;99.90;;;;;;5009812;28;20421;-76
2023/01/11 05:58:23;;;;;;;3.67;1.77;;;6.20;99.90;;;;;;5020029;28;20458;-76
2023/01/11 06:00:51;;;;;;;6.00;2.20;;;6.20;99.90;;;;;;5021987;28;20426;-75
2023/01/11 06:03:17;;;;;;;1.87;1.40;;;6.20;99.90;;;;;;5023963;28;20524;-76
2023/01/11 06:05:43;;;;;;;3.30;1.23;;;6.20;99.90;;;;;;5025973;28;20406;-75
2023/01/11 06:08:09;;;;;;;6.60;1.60;;;6.20;99.90;;;;;;5026219;28;20500;-76
2023/01/11 06:10:35;;;;;;;1.73;1.63;;;6.20;99.90;;;;;;5020882;28;21068;-76
2023/01/11 06:15:44;;;;;;;1.63;1.10;;;6.10;99.90;;;;;;5019313;28;20236;-76
2023/01/11 06:18:10;;;;;;;3.83;1.50;;;6.10;99.90;;;;;;5017303;28;20947;-76
2023/01/11 06:20:36;;;;;;;1.53;1.43;;;6.10;99.90;;;;;;5010088;28;20194;-77
2023/01/11 06:23:02;;;;;;;2.87;1.60;;;6.00;99.90;;;;;;5025586;28;20180;-77
2023/01/11 06:25:29;;;;;;;6.03;1.30;;;6.00;99.90;;;;;;5016404;28;20260;-77
2023/01/11 06:27:55;;;;;;;3.10;1.53;;;6.10;99.90;;;;;;5002340;28;20426;-75
2023/01/11 06:30:24;;;;;;;2.43;1.60;;;6.20;99.90;;;;;;5016651;28;20439;-75
2023/01/11 06:32:53;;;;;;;6.80;2.10;;;6.20;99.90;;;;;;5011423;28;20422;-76
2023/01/11 06:35:19;;;;;;;2.03;1.50;;;6.20;99.90;;;;;;5018201;28;20417;-76
2023/01/11 06:37:44;;;;;;;4.43;1.53;;;6.10;99.90;;;;;;5012373;28;20422;-76
2023/01/11 06:40:10;;;;;;;1.90;1.50;;;6.10;99.90;;;;;;5030311;28;20466;-75
2023/01/11 06:42:36;;;;;;;2.83;1.30;;;6.10;99.90;;;;;;5028705;28;20266;-76
2023/01/11 06:45:02;;;;;;;1.80;1.30;;;6.10;99.90;;;;;;5017033;28;20941;-76
2023/01/11 06:47:27;;;;;;;3.73;1.50;;;6.10;99.90;;;;;;5029769;28;20278;-76
2023/01/11 06:49:53;;;;;;;5.00;1.30;;;6.10;99.90;;;;;;5021817;28;20414;-76
2023/01/11 06:52:19;;;;;;;1.97;1.53;;;6.10;99.90;;;;;;5018747;28;20217;-76
2023/01/11 06:54:44;;;;;;;4.70;1.40;;;6.10;99.90;;;;;;5017770;28;20556;-75
2023/01/11 06:57:10;;;;;;;6.60;1.97;;;6.10;99.90;;;;;;5021294;28;20230;-73
2023/01/11 06:59:38;;;;;;;1.20;1.10;;;6.10;99.90;;;;;;5009143;28;20210;-76
2023/01/11 07:02:04;;;;;;;2.30;1.43;;;6.10;99.90;;;;;;5021249;28;20435;-75
2023/01/11 07:04:30;;;;;;;1.30;1.10;;;6.10;99.90;;;;;;5017629;28;20501;-75
2023/01/11 07:06:56;;;;;;;3.97;1.47;;;6.10;99.90;;;;;;5024793;28;20876;-76
2023/01/11 07:09:22;;;;;;;5.27;1.70;;;6.10;99.90;;;;;;5021977;28;20184;-76
2023/01/11 07:11:47;;;;;;;2.53;1.40;;;6.10;99.90;;;;;;5024931;28;20450;-76
2023/01/11 07:14:18;;;;;;;2.50;1.30;;;6.10;99.90;;;;;;5023271;28;20420;-76
2023/01/11 07:16:47;;;;;;;4.53;1.70;;;6.10;99.90;;;;;;5006684;28;20187;-76
2023/01/11 07:19:12;;;;;;;1.73;1.10;;;6.20;99.90;;;;;;5025920;28;20460;-76
2023/01/11 07:21:38;;;;;;;2.07;1.43;;;6.20;99.90;;;;;;5025782;28;20430;-74
2023/01/11 07:24:04;;;;;;;2.63;1.53;;;6.20;99.90;;;;;;5024186;28;20337;-75
2023/01/11 07:26:31;;;;;;;1.50;1.20;;;6.30;99.90;;;;;;5022196;28;20196;-75
2023/01/11 07:28:57;;;;;;;1.53;1.17;;;6.30;99.90;;;;;;5024328;28;20418;-73
2023/01/11 07:31:23;;;;;;;5.63;1.57;;;6.30;99.90;;;;;;5022452;28;20951;-74
2023/01/11 07:33:48;;;;;;;3.43;1.67;;;6.30;99.90;;;;;;5024092;28;20207;-71
2023/01/11 07:36:14;;;;;;;3.33;1.43;;;6.40;99.90;;;;;;5024306;28;20199;-75
2023/01/11 07:38:39;;;;;;;1.50;1.13;;;6.40;99.90;;;;;;5024244;28;20208;-74
2023/01/11 07:43:10;;;;;;;3.63;1.30;;;6.40;99.90;;;;;;5026470;28;20270;-76
2023/01/11 07:43:50;;;;;;;1.83;1.20;;;6.40;99.90;;;;;;5024075;28;20599;-75
2023/01/11 07:46:16;;;;;;;2.20;1.40;;;6.50;99.90;;;;;;5023386;28;20493;-75
2023/01/11 07:48:42;;;;;;;2.70;1.50;;;6.50;99.90;;;;;;5013241;28;20253;-75
2023/01/11 07:51:08;;;;;;;1.80;1.33;;;6.50;99.90;;;;;;5018056;28;20262;-75
2023/01/11 07:53:33;;;;;;;1.07;0.97;;;6.50;99.90;;;;;;5022012;28;20703;-74
2023/01/11 07:55:59;;;;;;;2.53;1.60;;;6.60;99.90;;;;;;5024006;28;20415;-76
2023/01/11 07:58:24;;;;;;;2.73;1.23;;;6.60;99.90;;;;;;5021646;28;20195;-75
2023/01/11 08:00:50;;;;;;;3.80;1.90;;;6.60;99.90;;;;;;5024138;28;20584;-75
2023/01/11 08:03:16;;;;;;;4.77;2.00;;;6.70;99.90;;;;;;5023611;28;20186;-75
2023/01/11 08:05:41;;;;;;;2.70;1.10;;;6.70;99.90;;;;;;5021377;28;20623;-75
2023/01/11 08:08:07;;;;;;;2.90;1.57;;;6.70;99.90;;;;;;5023370;28;20234;-75
2023/01/11 08:10:33;;;;;;;4.13;1.40;;;6.80;99.90;;;;;;5023223;28;20318;-75
2023/01/11 08:15:43;;;;;;;3.60;1.60;;;6.80;99.90;;;;;;5021643;28;20413;-75
2023/01/11 08:18:10;;;;;;;1.67;1.20;;;6.90;99.90;;;;;;5003939;28;20406;-75
2023/01/11 08:20:36;;;;;;;2.43;1.47;;;6.90;99.90;;;;;;5015640;28;20279;-75
2023/01/11 08:23:05;;;;;;;1.30;1.20;;;6.90;99.90;;;;;;5017179;28;20488;-76
2023/01/11 08:25:31;;;;;;;3.50;1.50;;;6.90;99.90;;;;;;5022379;28;20498;-75
2023/01/11 08:28:00;;;;;;;7.93;1.40;;;6.90;99.90;;;;;;5023829;28;20469;-75
2023/01/11 08:30:26;;;;;;;4.73;2.03;;;7.00;99.90;;;;;;5022154;28;20446;-76
2023/01/11 08:32:51;;;;;;;5.63;1.57;;;7.00;99.90;;;;;;5022109;28;20410;-75
2023/01/11 08:35:17;;;;;;;2.50;1.27;;;7.00;99.90;;;;;;5023343;28;20187;-75
2023/01/11 08:37:42;;;;;;;4.63;1.77;;;7.00;99.90;;;;;;5021669;28;20213;-75
2023/01/11 08:40:08;;;;;;;2.40;1.50;;;7.00;99.90;;;;;;5018992;28;20205;-76
2023/01/11 08:42:34;;;;;;;3.27;1.40;;;7.10;99.90;;;;;;5025524;28;20198;-75
2023/01/11 08:45:00;;;;;;;1.83;1.73;;;7.10;99.90;;;;;;5019105;28;20460;-75
2023/01/11 08:47:25;;;;;;;4.80;1.60;;;7.20;99.90;;;;;;5019223;28;20238;-76
2023/01/11 08:49:51;;;;;;;2.20;1.50;;;7.10;99.90;;;;;;5019069;28;20666;-75
2023/01/11 08:52:17;;;;;;;1.73;1.37;;;7.10;99.90;;;;;;5026726;28;20326;-75
2023/01/11 08:54:43;;;;;;;2.23;1.60;;;7.20;99.90;;;;;;5019255;28;20269;-76
2023/01/11 08:57:08;;;;;;;2.60;1.43;;;7.30;99.90;;;;;;5018823;28;20176;-75
2023/01/11 08:59:34;;;;;;;6.43;1.53;;;7.30;99.90;;;;;;5024923;28;20225;-76
2023/01/11 09:02:01;;;;;;;2.10;1.40;;;7.30;99.90;;;;;;5018466;28;20184;-75
2023/01/11 09:04:27;;;;;;;1.50;1.40;;;7.40;99.90;;;;;;5008030;28;20724;-75
2023/01/11 09:06:52;;;;;;;4.83;2.90;;;7.30;99.90;;;;;;5018859;28;20506;-74
2023/01/11 09:09:18;;;;;;;10.87;2.50;;;7.30;99.90;;;;;;5030921;28;20445;-74
2023/01/11 09:11:53;;;;;;;2.97;1.50;;;7.20;99.90;;;;;;5019449;28;20249;-72
2023/01/11 09:14:19;;;;;;;3.20;1.60;;;7.20;99.90;;;;;;5019256;28;20179;-75
2023/01/11 09:16:44;;;;;;;4.90;1.70;;;7.20;99.90;;;;;;5025349;28;20482;-74
2023/01/11 09:19:10;;;;;;;6.37;3.80;;;7.40;99.90;;;;;;5017045;28;20557;-74
2023/01/11 09:21:35;;;;;;;26.13;14.27;;;7.50;99.90;;;;;;5038874;23;20595;-67
2023/01/11 09:24:02;;;;;;;11.00;6.27;;;7.60;99.90;;;;;;5024843;28;20651;-68
2023/01/11 09:26:28;;;;;;;6.07;3.77;;;7.70;99.90;;;;;;5022772;28;20225;-68
2023/01/11 09:28:54;;;;;;;21.53;11.67;;;7.70;99.90;;;;;;5022133;28;20495;-68
2023/01/11 09:31:20;;;;;;;3.27;2.70;;;7.70;99.90;;;;;;5027642;28;20517;-68
2023/01/11 09:33:45;;;;;;;2.00;1.80;;;7.70;99.90;;;;;;5024657;28;20413;-69
2023/01/11 09:36:13;;;;;;;1.80;1.67;;;7.50;99.90;;;;;;5026451;28;20185;-68
2023/01/11 09:38:42;;;;;;;4.63;1.80;;;7.50;99.90;;;;;;5010924;28;20523;-68
2023/01/11 09:41:33;;;;;;;2.77;2.37;;;7.40;99.90;;;;;;5021490;28;20440;-70
2023/01/11 09:44:17;;;;;;;2.00;1.80;;;7.30;99.90;;;;;;5012977;28;20411;-68
2023/01/11 09:46:47;;;;;;;1.80;1.70;;;7.20;99.90;;;;;;5017580;28;20492;-68
2023/01/11 09:49:19;;;;;;;2.47;2.17;;;7.10;99.90;;;;;;5024909;28;20415;-68
2023/01/11 09:51:46;;;;;;;2.20;1.77;;;7.10;99.90;;;;;;5023503;28;20427;-67
2023/01/11 09:54:20;;;;;;;3.90;2.00;;;7.00;99.90;;;;;;5024826;28;20498;-67
2023/01/11 09:56:59;;;;;;;2.03;1.70;;;7.00;99.90;;;;;;5014192;28;20499;-69
2023/01/11 09:59:40;;;;;;;3.07;1.70;;;7.00;99.90;;;;;;5021459;28;20457;-67
2023/01/11 10:02:36;;;;;;;2.73;1.87;;;7.00;99.90;;;;;;5019057;28;20430;-67
2023/01/11 10:05:25;;;;;;;2.70;2.07;;;7.00;99.90;;;;;;5026435;28;20764;-67
2023/01/11 10:08:12;;;;;;;5.03;2.23;;;6.90;99.90;;;;;;5016500;28;20901;-68
2023/01/11 10:10:49;;;;;;;7.47;2.20;;;7.00;99.90;;;;;;5022329;28;20423;-68
2023/01/11 10:13:47;;;;;;;1.90;1.80;;;7.00;99.90;;;;;;5022144;28;20415;-68
2023/01/11 10:16:23;;;;;;;2.30;1.97;;;7.00;99.90;;;;;;4987043;28;20415;-68
2023/01/11 10:19:15;;;;;;;2.57;1.97;;;7.10;99.90;;;;;;5019309;28;20451;-68
2023/01/11 10:22:00;;;;;;;3.70;2.43;;;7.10;99.90;;;;;;5011633;28;20864;-70
2023/01/11 10:24:57;;;;;;;2.10;1.80;;;7.20;99.90;;;;;;5021005;28;20429;-70
2023/01/11 10:27:36;;;;;;;2.40;2.20;;;7.20;99.90;;;;;;4968962;28;20521;-66
2023/01/11 10:30:48;;;;;;;2.10;1.57;;;7.20;99.90;;;;;;5023242;28;20500;-68
2023/01/11 10:37:03;;;;;;;2.60;2.40;;;7.30;99.90;;;;;;5012119;28;20407;-68
2023/01/11 10:42:45;;;;;;;2.57;2.37;;;7.20;99.90;;;;;;5020462;28;20402;-69
2023/01/11 10:45:24;;;;;;;2.67;2.20;;;7.30;99.90;;;;;;5021472;28;20737;-69
2023/01/11 10:48:13;;;;;;;1.87;1.77;;;7.30;99.90;;;;;;5008755;28;20916;-68
2023/01/11 10:51:16;;;;;;;8.53;2.37;;;7.40;99.90;;;;;;5023970;28;20411;-68
2023/01/11 10:53:54;;;;;;;3.43;2.40;;;7.40;99.90;;;;;;5026044;28;20448;-68
2023/01/11 10:56:51;;;;;;;2.70;2.23;;;7.40;99.90;;;;;;5008007;28;20403;-69
2023/01/11 10:59:38;;;;;;;2.73;1.97;;;7.40;99.90;;;;;;5001008;28;20555;-69
2023/01/11 11:02:16;;;;;;;2.77;2.20;;;7.40;99.90;;;;;;5016577;28;20850;-68
2023/01/11 11:05:10;;;;;;;2.90;2.00;;;7.50;99.90;;;;;;5007379;28;20426;-68
2023/01/11 11:08:08;;;;;;;3.17;2.40;;;7.60;99.90;;;;;;5022782;28;20425;-68
2023/01/11 11:10:42;;;;;;;4.07;2.23;;;7.60;99.90;;;;;;5023468;28;20802;-68
2023/01/11 11:13:29;;;;;;;2.17;1.97;;;7.40;99.90;;;;;;5024307;28;20417;-71
2023/01/11 11:16:02;;;;;;;3.93;2.10;;;7.50;99.90;;;;;;5004972;28;20434;-69
2023/01/11 11:18:28;;;;;;;2.30;2.13;;;7.50;99.90;;;;;;5021475;28;20594;-69
2023/01/11 11:21:00;;;;;;;2.10;2.00;;;7.50;99.90;;;;;;5022102;28;20539;-69
2023/01/11 11:23:27;;;;;;;2.00;1.80;;;7.50;99.90;;;;;;5022193;28;20168;-68
2023/01/11 11:25:58;;;;;;;3.27;2.40;;;7.50;99.90;;;;;;5025814;28;20494;-68
2023/01/11 11:28:30;;;;;;;2.60;2.03;;;7.50;99.90;;;;;;5008922;28;20428;-68
2023/01/11 11:31:04;;;;;;;4.47;2.00;;;7.60;99.90;;;;;;5020408;28;20444;-68
2023/01/11 11:33:40;;;;;;;3.13;2.37;;;7.50;99.90;;;;;;5022356;28;20410;-68
2023/01/11 11:36:11;;;;;;;6.33;3.53;;;7.50;99.90;;;;;;5015087;28;20428;-68
2023/01/11 11:38:57;;;;;;;3.37;3.07;;;7.50;99.90;;;;;;5024845;28;20800;-68
2023/01/11 11:41:23;;;;;;;1.70;1.60;;;7.50;99.90;;;;;;5026354;28;20467;-69
2023/01/11 11:43:49;;;;;;;3.13;2.30;;;7.50;99.90;;;;;;5021827;28;20859;-69
2023/01/11 11:46:14;;;;;;;2.60;2.40;;;7.60;99.90;;;;;;5028686;28;20174;-68
2023/01/11 11:48:42;;;;;;;3.00;2.67;;;7.60;99.90;;;;;;5022192;28;20181;-69
2023/01/11 11:51:15;;;;;;;2.70;2.27;;;7.50;99.90;;;;;;5021644;28;20194;-68
2023/01/11 11:53:47;;;;;;;2.07;1.90;;;7.50;99.90;;;;;;5029029;28;20445;-69
2023/01/11 11:56:30;;;;;;;3.67;2.50;;;7.60;99.90;;;;;;5010033;28;20985;-68
2023/01/11 11:58:57;;;;;;;2.03;1.93;;;7.60;99.90;;;;;;5021036;28;20812;-68
2023/01/11 12:01:36;;;;;;;3.77;3.27;;;7.50;99.90;;;;;;5020714;28;20483;-69
2023/01/11 12:04:02;;;;;;;2.30;2.10;;;7.60;99.90;;;;;;5026547;28;20844;-69
2023/01/11 12:06:29;;;;;;;2.40;2.20;;;7.60;99.90;;;;;;5021055;28;20409;-69
2023/01/11 12:08:58;;;;;;;3.50;2.50;;;7.60;99.90;;;;;;5012895;28;20423;-70
2023/01/11 12:11:37;;;;;;;3.40;2.30;;;7.70;99.90;;;;;;5021271;28;20444;-69
2023/01/11 12:14:08;;;;;;;2.10;1.90;;;7.70;99.90;;;;;;5024288;28;20427;-69
2023/01/11 12:16:38;;;;;;;4.03;2.20;;;7.70;99.90;;;;;;5023309;28;20439;-69
2023/01/11 12:19:28;;;;;;;3.70;2.50;;;7.80;99.90;;;;;;5024591;28;20447;-69
2023/01/11 12:22:17;;;;;;;3.90;2.93;;;7.80;99.90;;;;;;5016228;28;20524;-69
2023/01/11 12:24:45;;;;;;;2.77;2.27;;;7.80;99.90;;;;;;5022442;28;20410;-69
2023/01/11 12:27:45;;;;;;;3.37;2.80;;;7.90;99.90;;;;;;5026920;28;20418;-69
2023/01/11 12:30:14;;;;;;;6.70;2.67;;;8.00;99.90;;;;;;4960866;28;20458;-70
2023/01/11 12:33:17;;;;;;;4.60;2.97;;;8.20;99.90;;;;;;5015898;28;20460;-70
2023/01/11 12:36:01;;;;;;;3.27;2.67;;;8.10;99.90;;;;;;5015892;28;20500;-69
2023/01/11 12:38:29;;;;;;;3.93;3.07;;;8.20;99.90;;;;;;5017024;28;20910;-69
2023/01/11 12:41:06;;;;;;;4.33;2.30;;;8.20;99.90;;;;;;5014338;28;20895;-68
2023/01/11 12:43:58;;;;;;;4.50;2.23;;;8.30;99.90;;;;;;5023450;28;20532;-69
2023/01/11 12:46:48;;;;;;;6.47;2.80;;;8.10;99.90;;;;;;5023597;28;20856;-69
2023/01/11 12:49:32;;;;;;;2.30;2.10;;;8.10;99.90;;;;;;5020007;28;20732;-68
2023/01/11 12:52:22;;;;;;;2.63;2.40;;;8.10;99.90;;;;;;5005605;28;20427;-69
2023/01/11 12:55:08;;;;;;;2.70;2.40;;;8.20;99.90;;;;;;5008365;28;20426;-69
2023/01/11 12:58:04;;;;;;;2.90;2.33;;;8.20;99.90;;;;;;4995036;28;21027;-69
2023/01/11 13:00:54;;;;;;;3.03;2.37;;;8.10;99.90;;;;;;5022275;28;20456;-68
2023/01/11 13:03:43;;;;;;;2.23;2.13;;;8.00;99.90;;;;;;5024643;28;20481;-66
2023/01/11 13:06:29;;;;;;;2.33;2.00;;;8.00;99.90;;;;;;5004399;28;20518;-71
2023/01/11 13:09:01;;;;;;;2.20;1.87;;;8.00;99.90;;;;;;5010259;28;20949;-67
2023/01/11 13:11:47;;;;;;;2.50;2.00;;;8.10;99.90;;;;;;5019473;28;20419;-68
2023/01/11 13:14:28;;;;;;;4.50;2.27;;;8.10;99.90;;;;;;5016942;28;20529;-67
2023/01/11 13:17:14;;;;;;;4.93;3.23;;;8.10;99.90;;;;;;5013078;28;20464;-71
2023/01/11 13:20:10;;;;;;;2.73;2.53;;;8.10;99.90;;;;;;5021867;28;20543;-70
2023/01/11 13:22:42;;;;;;;2.43;1.97;;;8.00;99.90;;;;;;5006804;28;20443;-65
2023/01/11 13:25:23;;;;;;;2.53;2.10;;;8.00;99.90;;;;;;5018435;28;20470;-70
2023/01/11 13:27:51;;;;;;;8.93;5.90;;;8.00;99.90;;;;;;5014278;28;20502;-71
2023/01/11 13:30:19;;;;;;;9.70;5.90;;;8.00;99.90;;;;;;5019586;28;20937;-73
2023/01/11 13:32:56;;;;;;;7.80;5.03;;;8.00;99.90;;;;;;5020147;28;20432;-74
2023/01/11 13:35:50;;;;;;;10.37;5.90;;;8.00;99.90;;;;;;5012564;28;20486;-72
2023/01/11 13:38:32;;;;;;;2.33;2.10;;;8.10;99.90;;;;;;5013337;28;21537;-70
2023/01/11 13:41:52;;;;;;;2.37;2.17;;;8.10;99.90;;;;;;5003500;28;20956;-71
2023/01/11 13:44:27;;;;;;;2.33;2.10;;;8.10;99.90;;;;;;4944761;29;20421;-70
2023/01/11 13:47:10;;;;;;;3.80;3.50;;;8.10;99.90;;;;;;4942133;29;20415;-71
2023/01/11 13:49:57;;;;;;;3.43;2.40;;;8.10;99.90;;;;;;4992698;28;20404;-71
2023/01/11 13:52:48;;;;;;;2.53;2.33;;;8.10;99.90;;;;;;5017700;28;20414;-71